sensor_id;sensor_type;location;lat;lon;timestamp;pressure;altitude;pressure_sealevel;temperature;humidity
84271;BME280;74614;50.032;19.566;2024-02-15T00:01:29;-3200.00;;;0.00;0.00
84271;BME280;74614;50.032;19.566;2024-02-15T00:03:29;-3200.00;;;0.00;0.00
84271;BME280;74614;50.032;19.566;2024-02-15T00:05:34;-3200.00;;;0.00;0.00
84271;BME280;74614;50.032;19.566;2024-02-15T00:08:29;-3200.00;;;0.00;0.00
84271;BME280;74614;50.032;19.566;2024-02-15T00:10:33;-3200.00;;;0.00;0.00
84271;BME280;74614;50.032;19.566;2024-02-15T00:12:27;-3200.00;;;0.00;0.00
84271;BME280;74614;50.032;19.566;2024-02-15T00:14:30;-3200.00;;;0.00;0.00
84271;BME280;74614;50.032;19.566;2024-02-15T00:16:33;-3200.00;;;0.00;0.00
84271;BME280;74614;50.032;19.566;2024-02-15T00:18:28;-3200.00;;;0.00;0.00
84271;BME280;74614;50.032;19.566;2024-02-15T00:20:30;99147.42;;;4.83;60.67
84271;BME280;74614;50.032;19.566;2024-02-15T00:22:28;99147.06;;;4.85;60.46
84271;BME280;74614;50.032;19.566;2024-02-15T00:24:29;99146.55;;;4.88;60.36
84271;BME280;74614;50.032;19.566;2024-02-15T00:26:28;99148.60;;;4.91;60.08
84271;BME280;74614;50.032;19.566;2024-02-15T00:28:35;99150.22;;;4.86;60.22
84271;BME280;74614;50.032;19.566;2024-02-15T00:31:31;99154.08;;;4.85;60.84
84271;BME280;74614;50.032;19.566;2024-02-15T00:33:34;99154.94;;;4.77;61.03
84271;BME280;74614;50.032;19.566;2024-02-15T00:35:27;99156.56;;;4.85;61.19
84271;BME280;74614;50.032;19.566;2024-02-15T00:37:33;99157.42;;;5.01;61.07
84271;BME280;74614;50.032;19.566;2024-02-15T00:39:32;99159.61;;;5.20;60.83
84271;BME280;74614;50.032;19.566;2024-02-15T00:41:36;99160.34;;;5.29;60.92
84271;BME280;74614;50.032;19.566;2024-02-15T00:44:29;99155.77;;;5.37;61.18
84271;BME280;74614;50.032;19.566;2024-02-15T00:46:28;99154.05;;;5.45;60.86
84271;BME280;74614;50.032;19.566;2024-02-15T00:48:27;99155.71;;;5.52;60.85
84271;BME280;74614;50.032;19.566;2024-02-15T00:50:29;99158.56;;;5.53;60.58
84271;BME280;74614;50.032;19.566;2024-02-15T00:52:26;99159.29;;;5.45;60.70
84271;BME280;74614;50.032;19.566;2024-02-15T00:54:28;99164.82;;;5.44;61.09
84271;BME280;74614;50.032;19.566;2024-02-15T00:56:26;99167.50;;;5.45;61.21
84271;BME280;74614;50.032;19.566;2024-02-15T00:58:30;99169.95;;;5.58;61.13
84271;BME280;74614;50.032;19.566;2024-02-15T01:00:28;99170.49;;;5.64;60.64
84271;BME280;74614;50.032;19.566;2024-02-15T01:02:31;99168.00;;;5.62;60.12
84271;BME280;74614;50.032;19.566;2024-02-15T01:04:36;99174.08;;;5.50;60.85
84271;BME280;74614;50.032;19.566;2024-02-15T01:07:27;99172.41;;;5.46;60.86
84271;BME280;74614;50.032;19.566;2024-02-15T01:09:39;99172.81;;;5.39;60.49
84271;BME280;74614;50.032;19.566;2024-02-15T01:12:28;99173.86;;;5.34;60.62
84271;BME280;74614;50.032;19.566;2024-02-15T01:14:29;99172.45;;;5.36;60.81
84271;BME280;74614;50.032;19.566;2024-02-15T01:16:29;99172.28;;;5.30;60.65
84271;BME280;74614;50.032;19.566;2024-02-15T01:18:28;99172.26;;;5.24;60.34
84271;BME280;74614;50.032;19.566;2024-02-15T01:20:29;99175.00;;;5.19;60.64
84271;BME280;74614;50.032;19.566;2024-02-15T01:22:37;99177.10;;;5.16;60.63
84271;BME280;74614;50.032;19.566;2024-02-15T01:25:36;99173.38;;;5.10;60.70
84271;BME280;74614;50.032;19.566;2024-02-15T01:28:32;99170.90;;;5.08;60.09
84271;BME280;74614;50.032;19.566;2024-02-15T01:30:27;99174.32;;;5.08;60.63
84271;BME280;74614;50.032;19.566;2024-02-15T01:32:33;99175.11;;;5.08;61.24
84271;BME280;74614;50.032;19.566;2024-02-15T01:34:29;99174.30;;;5.07;61.22
84271;BME280;74614;50.032;19.566;2024-02-15T01:36:28;99178.71;;;5.19;61.46
84271;BME280;74614;50.032;19.566;2024-02-15T01:38:28;99173.86;;;5.26;61.39
84271;BME280;74614;50.032;19.566;2024-02-15T01:40:29;99175.79;;;5.19;61.35
84271;BME280;74614;50.032;19.566;2024-02-15T01:42:28;99178.89;;;5.30;61.33
84271;BME280;74614;50.032;19.566;2024-02-15T01:44:35;99173.06;;;5.33;61.51
84271;BME280;74614;50.032;19.566;2024-02-15T01:46:37;99178.27;;;5.41;61.51
84271;BME280;74614;50.032;19.566;2024-02-15T01:49:27;99172.94;;;5.40;61.84
84271;BME280;74614;50.032;19.566;2024-02-15T01:51:26;99174.93;;;5.41;61.49
84271;BME280;74614;50.032;19.566;2024-02-15T01:53:30;99174.74;;;5.41;61.64
84271;BME280;74614;50.032;19.566;2024-02-15T01:55:23;99174.60;;;5.47;61.45
84271;BME280;74614;50.032;19.566;2024-02-15T01:57:27;99176.35;;;5.48;61.91
84271;BME280;74614;50.032;19.566;2024-02-15T01:59:25;99171.26;;;5.44;61.58
84271;BME280;74614;50.032;19.566;2024-02-15T02:01:28;99173.67;;;5.48;61.68
84271;BME280;74614;50.032;19.566;2024-02-15T02:03:26;99169.30;;;5.51;61.75
84271;BME280;74614;50.032;19.566;2024-02-15T02:05:27;99166.55;;;5.47;61.59
84271;BME280;74614;50.032;19.566;2024-02-15T02:07:23;99170.45;;;5.46;61.61
84271;BME280;74614;50.032;19.566;2024-02-15T02:09:30;99166.78;;;5.64;61.81
84271;BME280;74614;50.032;19.566;2024-02-15T02:11:26;99168.83;;;5.67;61.84
84271;BME280;74614;50.032;19.566;2024-02-15T02:13:27;99166.09;;;5.64;61.59
84271;BME280;74614;50.032;19.566;2024-02-15T02:15:25;99164.83;;;5.62;61.83
84271;BME280;74614;50.032;19.566;2024-02-15T02:17:31;99165.13;;;5.60;61.90
84271;BME280;74614;50.032;19.566;2024-02-15T02:19:33;99164.68;;;5.62;61.72
84271;BME280;74614;50.032;19.566;2024-02-15T02:21:28;99161.40;;;5.56;61.48
84271;BME280;74614;50.032;19.566;2024-02-15T02:23:26;99159.14;;;5.53;61.63
84271;BME280;74614;50.032;19.566;2024-02-15T02:25:31;99158.28;;;5.58;61.79
84271;BME280;74614;50.032;19.566;2024-02-15T02:27:26;99155.03;;;5.58;61.65
84271;BME280;74614;50.032;19.566;2024-02-15T02:29:27;99152.34;;;5.52;61.63
84271;BME280;74614;50.032;19.566;2024-02-15T02:31:32;99156.13;;;5.61;61.77
84271;BME280;74614;50.032;19.566;2024-02-15T02:33:33;99154.99;;;5.72;62.02
84271;BME280;74614;50.032;19.566;2024-02-15T02:36:23;99152.64;;;5.68;61.75
84271;BME280;74614;50.032;19.566;2024-02-15T02:38:32;99150.62;;;5.65;61.70
84271;BME280;74614;50.032;19.566;2024-02-15T02:41:27;99144.43;;;5.59;61.34
84271;BME280;74614;50.032;19.566;2024-02-15T02:43:25;99143.19;;;5.61;61.74
84271;BME280;74614;50.032;19.566;2024-02-15T02:45:29;99144.91;;;5.66;61.48
84271;BME280;74614;50.032;19.566;2024-02-15T02:47:25;99142.61;;;5.68;61.52
84271;BME280;74614;50.032;19.566;2024-02-15T02:49:27;99143.31;;;5.62;61.36
84271;BME280;74614;50.032;19.566;2024-02-15T02:51:24;99144.69;;;5.59;61.41
84271;BME280;74614;50.032;19.566;2024-02-15T02:53:28;99147.58;;;5.47;61.31
84271;BME280;74614;50.032;19.566;2024-02-15T02:55:25;99141.64;;;5.49;60.93
84271;BME280;74614;50.032;19.566;2024-02-15T02:57:26;99147.17;;;5.47;60.62
84271;BME280;74614;50.032;19.566;2024-02-15T02:59:27;99148.53;;;5.41;60.56
84271;BME280;74614;50.032;19.566;2024-02-15T03:01:29;99149.25;;;5.33;60.37
84271;BME280;74614;50.032;19.566;2024-02-15T03:03:32;99144.14;;;5.34;60.29
84271;BME280;74614;50.032;19.566;2024-02-15T03:05:28;99146.38;;;5.29;59.87
84271;BME280;74614;50.032;19.566;2024-02-15T03:07:35;99141.00;;;5.30;60.39
84271;BME280;74614;50.032;19.566;2024-02-15T03:10:20;99140.77;;;5.34;61.05
84271;BME280;74614;50.032;19.566;2024-02-15T03:12:20;99143.51;;;5.34;61.27
84271;BME280;74614;50.032;19.566;2024-02-15T03:14:19;99145.66;;;5.34;61.44
84271;BME280;74614;50.032;19.566;2024-02-15T03:16:22;99141.32;;;5.36;61.52
84271;BME280;74614;50.032;19.566;2024-02-15T03:18:20;99144.69;;;5.51;61.41
84271;BME280;74614;50.032;19.566;2024-02-15T03:20:21;99140.20;;;5.68;60.93
84271;BME280;74614;50.032;19.566;2024-02-15T03:22:24;99142.32;;;5.66;60.58
84271;BME280;74614;50.032;19.566;2024-02-15T03:24:19;99142.84;;;5.70;60.53
84271;BME280;74614;50.032;19.566;2024-02-15T03:26:29;99142.19;;;5.56;60.96
84271;BME280;74614;50.032;19.566;2024-02-15T03:29:27;99141.53;;;5.65;61.29
84271;BME280;74614;50.032;19.566;2024-02-15T03:31:26;99142.17;;;5.79;61.42
84271;BME280;74614;50.032;19.566;2024-02-15T03:33:41;99136.36;;;5.80;61.36
84271;BME280;74614;50.032;19.566;2024-02-15T03:36:26;99143.80;;;5.73;60.77
84271;BME280;74614;50.032;19.566;2024-02-15T03:38:24;99141.22;;;5.73;60.69
84271;BME280;74614;50.032;19.566;2024-02-15T03:40:23;99141.75;;;5.82;60.41
84271;BME280;74614;50.032;19.566;2024-02-15T03:42:24;99139.82;;;5.75;60.22
84271;BME280;74614;50.032;19.566;2024-02-15T03:44:24;99140.35;;;5.63;60.23
84271;BME280;74614;50.032;19.566;2024-02-15T03:46:25;99137.37;;;5.41;60.55
84271;BME280;74614;50.032;19.566;2024-02-15T03:48:24;99144.74;;;5.36;60.68
84271;BME280;74614;50.032;19.566;2024-02-15T03:50:27;99144.94;;;5.30;60.84
84271;BME280;74614;50.032;19.566;2024-02-15T03:52:26;99145.96;;;5.36;61.08
84271;BME280;74614;50.032;19.566;2024-02-15T03:54:23;99145.35;;;5.47;61.07
84271;BME280;74614;50.032;19.566;2024-02-15T03:58:09;99142.24;;;5.46;60.86
84271;BME280;74614;50.032;19.566;2024-02-15T03:58:09;99144.84;;;5.41;61.37
84271;BME280;74614;50.032;19.566;2024-02-15T04:00:27;99145.32;;;5.61;61.42
84271;BME280;74614;50.032;19.566;2024-02-15T04:02:26;99148.06;;;5.78;61.31
84271;BME280;74614;50.032;19.566;2024-02-15T04:04:28;99142.77;;;5.91;61.30
84271;BME280;74614;50.032;19.566;2024-02-15T04:06:39;99142.44;;;5.98;60.89
84271;BME280;74614;50.032;19.566;2024-02-15T04:08:31;99140.54;;;6.05;60.99
84271;BME280;74614;50.032;19.566;2024-02-15T04:10:25;99131.09;;;5.94;60.50
84271;BME280;74614;50.032;19.566;2024-02-15T04:12:26;99146.25;;;5.90;60.78
84271;BME280;74614;50.032;19.566;2024-02-15T04:14:29;99135.08;;;5.92;60.48
84271;BME280;74614;50.032;19.566;2024-02-15T04:16:26;99142.97;;;5.92;60.41
84271;BME280;74614;50.032;19.566;2024-02-15T04:18:25;99133.72;;;6.03;60.79
84271;BME280;74614;50.032;19.566;2024-02-15T04:20:27;99136.31;;;6.20;60.83
84271;BME280;74614;50.032;19.566;2024-02-15T04:22:25;99128.33;;;6.12;60.31
84271;BME280;74614;50.032;19.566;2024-02-15T04:24:30;99128.76;;;6.01;59.98
84271;BME280;74614;50.032;19.566;2024-02-15T04:26:33;99129.67;;;5.98;59.99
84271;BME280;74614;50.032;19.566;2024-02-15T04:28:29;99130.21;;;5.99;60.28
84271;BME280;74614;50.032;19.566;2024-02-15T04:30:28;99134.14;;;6.14;60.15
84271;BME280;74614;50.032;19.566;2024-02-15T04:32:25;99134.30;;;6.24;59.91
84271;BME280;74614;50.032;19.566;2024-02-15T04:34:28;99137.51;;;6.17;60.31
84271;BME280;74614;50.032;19.566;2024-02-15T04:36:30;99137.85;;;6.12;60.16
84271;BME280;74614;50.032;19.566;2024-02-15T04:38:25;99138.09;;;6.09;59.61
84271;BME280;74614;50.032;19.566;2024-02-15T04:40:26;99139.22;;;6.12;59.75
84271;BME280;74614;50.032;19.566;2024-02-15T04:42:27;99137.75;;;6.15;59.79
84271;BME280;74614;50.032;19.566;2024-02-15T04:44:29;99134.48;;;6.14;60.25
84271;BME280;74614;50.032;19.566;2024-02-15T04:46:31;99142.30;;;6.28;60.19
84271;BME280;74614;50.032;19.566;2024-02-15T04:48:26;99140.46;;;6.34;59.91
84271;BME280;74614;50.032;19.566;2024-02-15T04:50:33;99146.59;;;6.31;60.11
84271;BME280;74614;50.032;19.566;2024-02-15T04:52:35;99146.01;;;6.41;59.90
84271;BME280;74614;50.032;19.566;2024-02-15T04:54:27;99144.43;;;6.40;59.86
84271;BME280;74614;50.032;19.566;2024-02-15T04:56:28;99149.70;;;6.44;59.89
84271;BME280;74614;50.032;19.566;2024-02-15T04:58:30;99154.61;;;6.58;59.43
84271;BME280;74614;50.032;19.566;2024-02-15T05:00:35;99146.95;;;6.61;59.43
84271;BME280;74614;50.032;19.566;2024-02-15T05:02:31;99154.38;;;6.67;59.74
84271;BME280;74614;50.032;19.566;2024-02-15T05:04:26;99150.73;;;6.63;59.17
84271;BME280;74614;50.032;19.566;2024-02-15T05:06:41;-3200.00;;;6.56;59.58
84271;BME280;74614;50.032;19.566;2024-02-15T05:09:33;99154.11;;;6.66;59.68
84271;BME280;74614;50.032;19.566;2024-02-15T05:11:28;99154.98;;;6.70;59.63
84271;BME280;74614;50.032;19.566;2024-02-15T05:13:32;99156.10;;;6.76;59.66
84271;BME280;74614;50.032;19.566;2024-02-15T05:15:30;99154.17;;;6.86;59.45
84271;BME280;74614;50.032;19.566;2024-02-15T05:17:29;99150.57;;;6.96;59.23
84271;BME280;74614;50.032;19.566;2024-02-15T05:19:28;99158.86;;;7.02;59.24
84271;BME280;74614;50.032;19.566;2024-02-15T05:21:33;99159.21;;;6.99;58.70
84271;BME280;74614;50.032;19.566;2024-02-15T05:23:28;99163.54;;;6.96;58.79
84271;BME280;74614;50.032;19.566;2024-02-15T05:25:49;99161.58;;;6.79;58.48
84271;BME280;74614;50.032;19.566;2024-02-15T05:28:35;99160.85;;;6.68;58.95
84271;BME280;74614;50.032;19.566;2024-02-15T05:30:26;99164.11;;;6.71;58.62
84271;BME280;74614;50.032;19.566;2024-02-15T05:32:27;99168.83;;;6.77;58.72
84271;BME280;74614;50.032;19.566;2024-02-15T05:34:28;99171.07;;;6.82;58.80
84271;BME280;74614;50.032;19.566;2024-02-15T05:36:26;99170.03;;;6.88;58.78
84271;BME280;74614;50.032;19.566;2024-02-15T05:38:26;99174.29;;;6.98;58.90
84271;BME280;74614;50.032;19.566;2024-02-15T05:40:28;99172.50;;;6.98;58.29
84271;BME280;74614;50.032;19.566;2024-02-15T05:42:28;99178.51;;;7.01;58.37
84271;BME280;74614;50.032;19.566;2024-02-15T05:44:28;99174.44;;;7.03;58.11
84271;BME280;74614;50.032;19.566;2024-02-15T05:46:28;99177.68;;;6.92;57.80
84271;BME280;74614;50.032;19.566;2024-02-15T05:48:30;99178.47;;;6.71;58.11
84271;BME280;74614;50.032;19.566;2024-02-15T05:50:30;99171.89;;;6.62;58.52
84271;BME280;74614;50.032;19.566;2024-02-15T05:52:30;99177.49;;;6.70;58.20
84271;BME280;74614;50.032;19.566;2024-02-15T05:54:28;99174.43;;;6.63;58.35
84271;BME280;74614;50.032;19.566;2024-02-15T05:56:30;99178.34;;;6.66;58.65
84271;BME280;74614;50.032;19.566;2024-02-15T05:58:27;99178.18;;;6.67;58.54
84271;BME280;74614;50.032;19.566;2024-02-15T06:00:28;99183.61;;;6.68;59.13
84271;BME280;74614;50.032;19.566;2024-02-15T06:02:28;99180.72;;;6.55;59.46
84271;BME280;74614;50.032;19.566;2024-02-15T06:04:33;99181.38;;;6.46;59.51
84271;BME280;74614;50.032;19.566;2024-02-15T06:06:27;99176.92;;;6.43;59.71
84271;BME280;74614;50.032;19.566;2024-02-15T06:08:30;99180.83;;;6.52;59.61
84271;BME280;74614;50.032;19.566;2024-02-15T06:10:26;99180.77;;;6.60;59.53
84271;BME280;74614;50.032;19.566;2024-02-15T06:12:28;99181.74;;;6.64;59.97
84271;BME280;74614;50.032;19.566;2024-02-15T06:14:27;99185.52;;;6.68;59.72
84271;BME280;74614;50.032;19.566;2024-02-15T06:16:26;99182.31;;;6.77;59.12
84271;BME280;74614;50.032;19.566;2024-02-15T06:18:33;99189.27;;;6.74;59.48
84271;BME280;74614;50.032;19.566;2024-02-15T06:20:34;99185.02;;;6.66;59.48
84271;BME280;74614;50.032;19.566;2024-02-15T06:22:27;99191.78;;;6.71;59.29
84271;BME280;74614;50.032;19.566;2024-02-15T06:24:27;99191.01;;;6.85;59.28
84271;BME280;74614;50.032;19.566;2024-02-15T06:26:27;99198.38;;;6.91;58.97
84271;BME280;74614;50.032;19.566;2024-02-15T06:40:07;99194.78;;;7.12;59.06
84271;BME280;74614;50.032;19.566;2024-02-15T06:42:28;99202.82;;;7.15;58.72
84271;BME280;74614;50.032;19.566;2024-02-15T06:44:26;99201.62;;;7.15;58.96
84271;BME280;74614;50.032;19.566;2024-02-15T06:46:27;99199.50;;;7.23;58.94
84271;BME280;74614;50.032;19.566;2024-02-15T06:48:28;99201.20;;;7.29;59.18
84271;BME280;74614;50.032;19.566;2024-02-15T06:50:25;99198.79;;;7.29;58.85
84271;BME280;74614;50.032;19.566;2024-02-15T06:52:31;99203.17;;;7.37;59.02
84271;BME280;74614;50.032;19.566;2024-02-15T06:54:26;99205.52;;;7.34;59.23
84271;BME280;74614;50.032;19.566;2024-02-15T06:56:28;99203.12;;;7.35;59.48
84271;BME280;74614;50.032;19.566;2024-02-15T06:58:26;99204.53;;;7.37;59.26
84271;BME280;74614;50.032;19.566;2024-02-15T07:00:25;99207.55;;;7.40;59.13
84271;BME280;74614;50.032;19.566;2024-02-15T07:02:29;99207.60;;;7.51;59.51
84271;BME280;74614;50.032;19.566;2024-02-15T07:04:25;99203.09;;;7.60;59.11
84271;BME280;74614;50.032;19.566;2024-02-15T07:06:31;99206.01;;;7.64;59.18
84271;BME280;74614;50.032;19.566;2024-02-15T07:08:31;99205.79;;;7.78;58.74
84271;BME280;74614;50.032;19.566;2024-02-15T07:10:28;99210.67;;;7.76;58.22
84271;BME280;74614;50.032;19.566;2024-02-15T07:12:29;99213.25;;;7.65;58.42
84271;BME280;74614;50.032;19.566;2024-02-15T07:14:29;99217.12;;;7.57;58.87
84271;BME280;74614;50.032;19.566;2024-02-15T07:16:27;99214.86;;;7.48;59.35
84271;BME280;74614;50.032;19.566;2024-02-15T07:18:32;99216.92;;;7.52;59.74
84271;BME280;74614;50.032;19.566;2024-02-15T07:20:29;99214.41;;;7.59;59.69
84271;BME280;74614;50.032;19.566;2024-02-15T07:22:30;99215.21;;;7.56;60.19
84271;BME280;74614;50.032;19.566;2024-02-15T07:24:27;99214.81;;;7.66;60.21
84271;BME280;74614;50.032;19.566;2024-02-15T07:26:29;99210.91;;;7.80;59.78
84271;BME280;74614;50.032;19.566;2024-02-15T07:28:29;99207.66;;;7.94;59.56
84271;BME280;74614;50.032;19.566;2024-02-15T07:30:30;99207.18;;;8.00;59.42
84271;BME280;74614;50.032;19.566;2024-02-15T07:32:26;99207.98;;;8.14;59.33
84271;BME280;74614;50.032;19.566;2024-02-15T07:34:27;99208.06;;;8.30;58.87
84271;BME280;74614;50.032;19.566;2024-02-15T07:36:31;99207.88;;;8.37;58.54
84271;BME280;74614;50.032;19.566;2024-02-15T07:38:28;99206.46;;;8.26;58.63
84271;BME280;74614;50.032;19.566;2024-02-15T07:40:28;99207.56;;;8.25;58.43
84271;BME280;74614;50.032;19.566;2024-02-15T07:42:25;99209.14;;;8.19;58.25
84271;BME280;74614;50.032;19.566;2024-02-15T07:44:25;99210.21;;;8.18;58.49
84271;BME280;74614;50.032;19.566;2024-02-15T07:46:29;99209.39;;;7.95;58.77
84271;BME280;74614;50.032;19.566;2024-02-15T07:48:27;99210.63;;;7.83;58.82
84271;BME280;74614;50.032;19.566;2024-02-15T07:50:28;99217.33;;;7.82;59.17
84271;BME280;74614;50.032;19.566;2024-02-15T07:52:27;99218.67;;;7.81;59.09
84271;BME280;74614;50.032;19.566;2024-02-15T07:54:27;99220.93;;;7.73;59.14
84271;BME280;74614;50.032;19.566;2024-02-15T07:56:27;99218.86;;;7.78;59.18
84271;BME280;74614;50.032;19.566;2024-02-15T07:58:29;99216.52;;;7.73;59.25
84271;BME280;74614;50.032;19.566;2024-02-15T08:00:28;99216.75;;;7.75;59.42
84271;BME280;74614;50.032;19.566;2024-02-15T08:02:31;99213.44;;;7.77;59.40
84271;BME280;74614;50.032;19.566;2024-02-15T08:04:31;99217.66;;;7.82;59.72
84271;BME280;74614;50.032;19.566;2024-02-15T08:06:27;99215.58;;;7.98;59.42
84271;BME280;74614;50.032;19.566;2024-02-15T08:08:28;99212.32;;;8.16;59.21
84271;BME280;74614;50.032;19.566;2024-02-15T08:10:26;99215.48;;;8.35;59.12
84271;BME280;74614;50.032;19.566;2024-02-15T08:12:26;99214.91;;;8.46;58.93
84271;BME280;74614;50.032;19.566;2024-02-15T08:14:27;99211.98;;;8.61;58.94
84271;BME280;74614;50.032;19.566;2024-02-15T08:16:30;99213.26;;;8.69;58.97
84271;BME280;74614;50.032;19.566;2024-02-15T08:18:29;99211.37;;;8.84;59.05
84271;BME280;74614;50.032;19.566;2024-02-15T08:20:30;99214.69;;;8.98;59.16
84271;BME280;74614;50.032;19.566;2024-02-15T08:22:30;99212.20;;;9.03;58.53
84271;BME280;74614;50.032;19.566;2024-02-15T08:24:27;99210.56;;;9.08;58.29
84271;BME280;74614;50.032;19.566;2024-02-15T08:26:28;99210.91;;;9.10;58.65
84271;BME280;74614;50.032;19.566;2024-02-15T08:28:28;99214.34;;;9.17;58.41
84271;BME280;74614;50.032;19.566;2024-02-15T08:30:28;99213.27;;;9.29;58.46
84271;BME280;74614;50.032;19.566;2024-02-15T08:32:28;99217.27;;;9.23;58.45
84271;BME280;74614;50.032;19.566;2024-02-15T08:34:31;99214.85;;;9.17;58.93
84271;BME280;74614;50.032;19.566;2024-02-15T08:36:29;99219.18;;;9.36;58.64
84271;BME280;74614;50.032;19.566;2024-02-15T08:38:26;99212.55;;;9.55;58.05
84271;BME280;74614;50.032;19.566;2024-02-15T08:40:33;99213.15;;;9.55;57.80
84271;BME280;74614;50.032;19.566;2024-02-15T08:42:30;99215.78;;;9.70;57.87
84271;BME280;74614;50.032;19.566;2024-02-15T08:44:30;99214.27;;;9.76;57.70
84271;BME280;74614;50.032;19.566;2024-02-15T08:46:29;99211.97;;;9.69;57.71
84271;BME280;74614;50.032;19.566;2024-02-15T08:48:32;99211.03;;;9.78;57.75
84271;BME280;74614;50.032;19.566;2024-02-15T08:50:32;99213.95;;;9.86;57.00
84271;BME280;74614;50.032;19.566;2024-02-15T08:52:28;99208.42;;;9.68;57.26
84271;BME280;74614;50.032;19.566;2024-02-15T08:54:29;99206.13;;;9.71;57.61
84271;BME280;74614;50.032;19.566;2024-02-15T08:56:29;99206.85;;;9.76;57.44
84271;BME280;74614;50.032;19.566;2024-02-15T08:58:29;99204.74;;;9.91;57.42
84271;BME280;74614;50.032;19.566;2024-02-15T09:00:27;99206.07;;;10.08;57.15
84271;BME280;74614;50.032;19.566;2024-02-15T09:02:29;99201.13;;;10.12;56.77
84271;BME280;74614;50.032;19.566;2024-02-15T09:04:34;99205.21;;;10.05;56.97
84271;BME280;74614;50.032;19.566;2024-02-15T09:06:31;99202.30;;;10.09;56.24
84271;BME280;74614;50.032;19.566;2024-02-15T09:08:28;99207.60;;;10.18;56.42
84271;BME280;74614;50.032;19.566;2024-02-15T09:10:28;99211.67;;;10.20;55.77
84271;BME280;74614;50.032;19.566;2024-02-15T09:12:32;99210.59;;;9.89;56.33
84271;BME280;74614;50.032;19.566;2024-02-15T09:14:28;99216.18;;;9.99;57.09
84271;BME280;74614;50.032;19.566;2024-02-15T09:16:32;99214.57;;;10.10;56.88
84271;BME280;74614;50.032;19.566;2024-02-15T09:18:29;99216.70;;;10.21;56.37
84271;BME280;74614;50.032;19.566;2024-02-15T09:20:36;99216.11;;;10.21;56.41
84271;BME280;74614;50.032;19.566;2024-02-15T09:23:26;99215.80;;;10.26;56.79
84271;BME280;74614;50.032;19.566;2024-02-15T09:25:30;99215.54;;;10.43;56.71
84271;BME280;74614;50.032;19.566;2024-02-15T09:27:30;99217.24;;;10.48;56.72
84271;BME280;74614;50.032;19.566;2024-02-15T09:29:40;99211.80;;;10.58;56.54
84271;BME280;74614;50.032;19.566;2024-02-15T09:32:30;99214.81;;;10.75;56.41
84271;BME280;74614;50.032;19.566;2024-02-15T09:34:27;99209.87;;;10.93;55.93
84271;BME280;74614;50.032;19.566;2024-02-15T09:36:33;99212.46;;;11.14;55.62
84271;BME280;74614;50.032;19.566;2024-02-15T09:38:26;99207.19;;;11.24;55.28
84271;BME280;74614;50.032;19.566;2024-02-15T09:40:26;99214.19;;;11.32;55.08
84271;BME280;74614;50.032;19.566;2024-02-15T09:42:27;99210.21;;;11.24;54.23
84271;BME280;74614;50.032;19.566;2024-02-15T09:44:28;99211.94;;;11.04;55.52
84271;BME280;74614;50.032;19.566;2024-02-15T09:46:35;99212.79;;;11.30;55.21
84271;BME280;74614;50.032;19.566;2024-02-15T09:49:27;99211.92;;;11.44;54.98
84271;BME280;74614;50.032;19.566;2024-02-15T09:51:20;99210.47;;;11.47;53.48
84271;BME280;74614;50.032;19.566;2024-02-15T09:53:26;99210.33;;;11.56;52.81
84271;BME280;74614;50.032;19.566;2024-02-15T09:55:29;99210.22;;;11.65;53.72
84271;BME280;74614;50.032;19.566;2024-02-15T09:57:43;99205.96;;;11.85;52.56
84271;BME280;74614;50.032;19.566;2024-02-15T10:00:27;99197.29;;;12.38;52.70
84271;BME280;74614;50.032;19.566;2024-02-15T10:02:32;99193.13;;;12.61;50.08
84271;BME280;74614;50.032;19.566;2024-02-15T10:04:25;99191.67;;;12.76;48.86
84271;BME280;74614;50.032;19.566;2024-02-15T10:06:27;99190.19;;;12.90;50.96
84271;BME280;74614;50.032;19.566;2024-02-15T10:08:32;99191.84;;;12.96;48.87
84271;BME280;74614;50.032;19.566;2024-02-15T10:10:28;99188.87;;;13.01;48.87
84271;BME280;74614;50.032;19.566;2024-02-15T10:12:37;99189.05;;;13.09;49.53
84271;BME280;74614;50.032;19.566;2024-02-15T10:14:29;99184.94;;;13.18;48.63
84271;BME280;74614;50.032;19.566;2024-02-15T10:16:32;99189.55;;;13.25;49.14
84271;BME280;74614;50.032;19.566;2024-02-15T10:18:26;99186.39;;;13.33;48.38
84271;BME280;74614;50.032;19.566;2024-02-15T10:20:26;99190.29;;;13.32;47.83
84271;BME280;74614;50.032;19.566;2024-02-15T10:22:26;99191.30;;;13.49;47.51
84271;BME280;74614;50.032;19.566;2024-02-15T10:24:26;99189.37;;;13.63;48.76
84271;BME280;74614;50.032;19.566;2024-02-15T10:26:37;99186.14;;;13.71;47.52
84271;BME280;74614;50.032;19.566;2024-02-15T10:29:34;99186.32;;;13.68;46.71
84271;BME280;74614;50.032;19.566;2024-02-15T10:31:33;99180.58;;;13.72;47.09
84271;BME280;74614;50.032;19.566;2024-02-15T10:33:41;99183.73;;;13.64;48.17
84271;BME280;74614;50.032;19.566;2024-02-15T10:36:30;99184.37;;;13.62;47.81
84271;BME280;74614;50.032;19.566;2024-02-15T10:38:26;99184.72;;;13.62;49.39
84271;BME280;74614;50.032;19.566;2024-02-15T10:40:28;99182.51;;;13.64;47.79
84271;BME280;74614;50.032;19.566;2024-02-15T10:42:27;99180.77;;;13.67;47.50
84271;BME280;74614;50.032;19.566;2024-02-15T10:44:28;99177.15;;;13.50;46.54
84271;BME280;74614;50.032;19.566;2024-02-15T10:46:28;99174.66;;;13.36;48.24
84271;BME280;74614;50.032;19.566;2024-02-15T10:48:28;99170.15;;;13.40;49.15
84271;BME280;74614;50.032;19.566;2024-02-15T10:50:27;99167.67;;;13.49;49.15
84271;BME280;74614;50.032;19.566;2024-02-15T10:52:32;99167.83;;;13.63;48.16
84271;BME280;74614;50.032;19.566;2024-02-15T10:54:40;99163.73;;;13.72;47.46
84271;BME280;74614;50.032;19.566;2024-02-15T10:57:30;99161.83;;;13.89;47.96
84271;BME280;74614;50.032;19.566;2024-02-15T11:00:43;99161.31;;;14.06;48.04
84271;BME280;74614;50.032;19.566;2024-02-15T11:03:35;99157.24;;;13.84;47.24
84271;BME280;74614;50.032;19.566;2024-02-15T11:05:34;99150.19;;;13.85;47.12
84271;BME280;74614;50.032;19.566;2024-02-15T11:07:33;99148.63;;;13.86;48.01
84271;BME280;74614;50.032;19.566;2024-02-15T11:09:35;99147.08;;;13.81;47.54